Time;durP1;ratioP1;P1;durP2;ratioP2;P2;SDS_P1;SDS_P2;PMS_P1;PMS_P2;Temp;Humidity;BMP_temperature;BMP_pressure;BME280_temperature;BME280_humidity;BME280_pressure;Samples;Min_cycle;Max_cycle;Signal;HPM_P1;HPM_P2
2022/07/11 00:01:37;;;;;;;2.03;1.83;;;27.40;99.90;;;;;;5077657;28;20196;-96
2022/07/11 00:04:11;;;;;;;2.20;2.10;;;27.20;99.90;;;;;;5062782;28;20292;-96
2022/07/11 00:06:43;;;;;;;2.10;2.00;;;27.50;99.90;;;;;;5074813;28;20208;-96
2022/07/11 00:09:21;;;;;;;1.80;1.70;;;27.00;99.90;;;;;;5068583;28;20208;-96
2022/07/11 00:11:53;;;;;;;2.50;2.27;;;27.00;99.90;;;;;;5063969;28;20208;-96
2022/07/11 00:17:02;;;;;;;2.57;2.07;;;27.00;99.90;;;;;;5086584;22;20270;-96
2022/07/11 00:22:22;;;;;;;5.03;2.00;;;26.80;99.90;;;;;;5279997;22;20436;-96
2022/07/11 00:27:30;;;;;;;2.50;2.30;;;27.10;99.90;;;;;;5087829;23;20239;-96
2022/07/11 00:30:02;;;;;;;3.33;2.20;;;26.90;99.90;;;;;;5047129;28;20268;-96
2022/07/11 00:32:36;;;;;;;2.40;2.20;;;27.00;99.90;;;;;;5035055;28;20259;-96
2022/07/11 00:41:38;;;;;;;2.50;2.30;;;26.40;99.90;;;;;;4705056;28;9999949;-96
2022/07/11 00:44:10;;;;;;;2.27;2.07;;;26.70;99.90;;;;;;5055652;28;20209;-96
2022/07/11 00:46:42;;;;;;;3.83;2.30;;;26.70;99.90;;;;;;5057075;28;20265;-96
2022/07/11 00:49:22;;;;;;;2.27;2.13;;;26.60;99.90;;;;;;5057188;28;20204;-96
2022/07/11 00:52:01;;;;;;;2.70;2.50;;;26.00;99.90;;;;;;5053736;28;20278;-96
2022/07/11 00:54:34;;;;;;;3.20;2.53;;;25.90;99.90;;;;;;5053659;28;20224;-96
2022/07/11 00:57:09;;;;;;;2.70;2.50;;;26.00;99.90;;;;;;5056135;28;20205;-96
2022/07/11 00:59:40;;;;;;;2.90;2.70;;;26.50;99.90;;;;;;5056165;28;20208;-96
2022/07/11 01:02:11;;;;;;;3.17;2.80;;;26.60;99.90;;;;;;5041820;28;20251;-96
2022/07/11 01:04:44;;;;;;;2.90;2.70;;;26.90;99.90;;;;;;5040178;28;20212;-95
2022/07/11 01:07:18;;;;;;;3.13;2.93;;;27.40;99.90;;;;;;5040024;28;20249;-95
2022/07/11 01:09:52;;;;;;;3.77;2.30;;;28.20;99.90;;;;;;5040813;28;20287;-95
2022/07/11 01:12:27;;;;;;;2.63;2.43;;;28.20;99.90;;;;;;5039935;28;20209;-96
2022/07/11 01:14:59;;;;;;;2.77;2.50;;;28.10;99.90;;;;;;5040635;28;20275;-95
2022/07/11 01:17:32;;;;;;;2.47;2.27;;;28.90;99.90;;;;;;5045997;28;20197;-95
2022/07/11 01:20:10;;;;;;;2.93;2.63;;;29.20;99.90;;;;;;5044866;28;20209;-95
2022/07/11 01:22:58;;;;;;;3.03;2.83;;;29.70;99.90;;;;;;5038651;28;20266;-95
2022/07/11 01:28:48;;;;;;;2.73;2.53;;;28.60;99.90;;;;;;5042772;28;20696;-96
2022/07/11 01:37:00;;;;;;;3.73;2.70;;;28.70;99.90;;;;;;5524509;22;20231;-96
2022/07/11 01:39:35;;;;;;;2.50;2.30;;;29.10;99.90;;;;;;5048637;28;20244;-96
2022/07/11 01:42:48;;;;;;;2.63;2.43;;;29.40;99.90;;;;;;5048994;28;20213;-96
2022/07/11 01:45:20;;;;;;;2.50;2.30;;;29.10;99.90;;;;;;5047550;28;20199;-96
2022/07/11 01:47:53;;;;;;;2.60;2.40;;;29.30;99.90;;;;;;5049366;28;20212;-96
2022/07/11 01:50:30;;;;;;;2.70;2.50;;;29.60;99.90;;;;;;5047042;28;20242;-96
2022/07/11 01:53:09;;;;;;;2.50;2.30;;;29.80;99.90;;;;;;5046448;28;20216;-96
2022/07/11 01:55:41;;;;;;;2.43;2.20;;;30.40;99.90;;;;;;5047183;28;20290;-96
2022/07/11 01:58:35;;;;;;;2.53;2.33;;;30.50;99.90;;;;;;5041842;28;20640;-96
2022/07/11 02:01:11;;;;;;;2.50;2.30;;;28.80;99.90;;;;;;5040574;28;20212;-95
2022/07/11 02:06:30;;;;;;;2.70;2.50;;;29.30;99.90;;;;;;5043757;28;20300;-96
2022/07/11 02:09:18;;;;;;;2.80;2.60;;;29.70;99.90;;;;;;5052246;28;20209;-96
2022/07/11 02:12:09;;;;;;;2.63;2.43;;;29.70;99.90;;;;;;5046119;28;20564;-96
2022/07/11 02:14:56;;;;;;;2.80;2.50;;;29.60;99.90;;;;;;4697448;28;10000352;-96
2022/07/11 02:17:36;;;;;;;2.97;2.78;;;29.40;99.90;;;;;;5043608;28;20195;-96
2022/07/11 02:20:14;;;;;;;3.33;2.83;;;29.10;99.90;;;;;;5041587;28;20288;-96
2022/07/11 02:23:07;;;;;;;3.37;2.80;;;28.90;99.90;;;;;;5063330;28;20211;-96
2022/07/11 02:25:42;;;;;;;3.43;2.90;;;28.70;99.90;;;;;;5091648;22;20260;-96
2022/07/11 02:31:02;;;;;;;2.60;2.40;;;28.20;99.90;;;;;;5341654;23;20279;-96
2022/07/11 02:33:40;;;;;;;3.13;2.30;;;28.40;99.90;;;;;;5051459;28;20694;-96
2022/07/11 02:39:10;;;;;;;3.50;2.47;;;27.50;99.90;;;;;;5055384;28;20217;-96
2022/07/11 02:41:50;;;;;;;2.73;2.53;;;26.50;99.90;;;;;;5056183;28;20201;-96
2022/07/11 02:44:36;;;;;;;4.83;3.00;;;25.70;99.90;;;;;;5054346;28;20213;-96
2022/07/11 02:47:21;;;;;;;3.40;2.90;;;24.90;99.90;;;;;;5054281;28;20240;-96
2022/07/11 02:58:47;;;;;;;3.03;2.73;;;23.60;99.90;;;;;;5053039;28;20204;-96
2022/07/11 03:01:19;;;;;;;4.13;2.43;;;23.40;99.90;;;;;;5050804;28;20213;-96
2022/07/11 03:03:59;;;;;;;3.40;2.50;;;23.30;99.90;;;;;;5044526;28;20205;-96
2022/07/11 03:06:30;;;;;;;2.60;2.40;;;23.10;99.90;;;;;;5048541;28;20216;-96
2022/07/11 03:09:02;;;;;;;2.83;2.63;;;23.00;99.90;;;;;;5044108;28;20244;-96
2022/07/11 03:14:19;;;;;;;2.53;2.33;;;22.80;99.90;;;;;;5038651;28;20205;-96
2022/07/11 03:20:11;;;;;;;2.23;2.03;;;22.60;99.90;;;;;;5037332;28;20328;-96
2022/07/11 03:22:50;;;;;;;2.57;2.37;;;22.50;99.90;;;;;;5035913;28;20220;-96
2022/07/11 03:28:33;;;;;;;2.33;2.13;;;22.20;99.90;;;;;;5032370;28;20210;-96
2022/07/11 03:31:07;;;;;;;2.33;2.13;;;22.20;99.90;;;;;;5027016;28;20213;-96
2022/07/11 03:39:52;;;;;;;2.63;2.33;;;21.90;99.90;;;;;;5035088;28;20205;-96
2022/07/11 03:57:42;;;;;;;11.80;5.33;;;21.30;99.90;;;;;;5050089;28;20201;-96
2022/07/11 04:00:25;;;;;;;8.20;2.77;;;20.90;99.90;;;;;;5044138;28;20213;-96
2022/07/11 04:12:09;;;;;;;2.50;2.10;;;20.20;99.90;;;;;;5052847;28;20241;-96
2022/07/11 04:14:45;;;;;;;2.43;1.90;;;20.20;99.90;;;;;;5046185;28;20208;-96
2022/07/11 04:17:19;;;;;;;2.23;2.03;;;20.20;99.90;;;;;;5047501;28;20237;-96
2022/07/11 04:19:50;;;;;;;2.87;1.90;;;20.20;99.90;;;;;;5059064;28;20200;-96
2022/07/11 04:22:22;;;;;;;2.20;2.00;;;20.10;99.90;;;;;;5061179;28;20270;-96
2022/07/11 04:24:56;;;;;;;1.80;1.70;;;20.10;99.90;;;;;;5060927;28;20208;-96
2022/07/11 04:27:29;;;;;;;2.10;1.90;;;20.00;99.90;;;;;;5060989;28;20354;-96
2022/07/11 04:30:14;;;;;;;2.73;1.83;;;19.90;99.90;;;;;;5059270;28;20220;-96
2022/07/11 04:32:48;;;;;;;1.60;1.50;;;19.80;99.90;;;;;;5061311;28;20214;-96
2022/07/11 04:41:13;;;;;;;1.67;1.57;;;19.80;99.90;;;;;;5068869;28;20231;-96
2022/07/11 04:46:29;;;;;;;2.73;1.27;;;19.80;99.90;;;;;;5049474;28;20228;-95
2022/07/11 04:49:05;;;;;;;1.60;1.50;;;19.80;99.90;;;;;;5079689;22;20236;-96
2022/07/11 04:57:20;;;;;;;1.20;1.10;;;19.60;99.90;;;;;;5070747;28;20284;-96
2022/07/11 04:59:57;;;;;;;1.17;1.07;;;19.50;99.90;;;;;;5054853;28;20197;-96
2022/07/11 05:02:39;;;;;;;0.93;0.93;;;19.50;99.90;;;;;;5057136;28;20208;-94
2022/07/11 05:05:15;;;;;;;2.03;1.13;;;19.50;99.90;;;;;;5057056;28;20193;-96
2022/07/11 05:07:49;;;;;;;1.30;1.20;;;19.50;99.90;;;;;;5063096;28;20200;-96
2022/07/11 05:10:21;;;;;;;1.00;0.90;;;19.40;99.90;;;;;;5058653;28;20212;-96
2022/07/11 05:12:52;;;;;;;1.00;0.93;;;19.40;99.90;;;;;;5061252;28;20224;-96
2022/07/11 05:15:25;;;;;;;1.00;1.00;;;19.30;99.90;;;;;;5060359;28;20656;-96
2022/07/11 05:18:01;;;;;;;0.77;0.77;;;19.30;99.90;;;;;;5058737;28;20638;-96
2022/07/11 05:20:34;;;;;;;1.60;0.80;;;19.30;99.90;;;;;;5061432;28;20208;-96
2022/07/11 05:36:48;;;;;;;1.03;1.00;;;19.00;99.90;;;;;;5062704;28;20242;-96
2022/07/11 05:39:25;;;;;;;1.27;1.10;;;18.90;99.90;;;;;;5065228;28;20700;-95
2022/07/11 05:41:58;;;;;;;0.87;0.87;;;18.90;99.90;;;;;;5059202;28;20606;-96
2022/07/11 05:47:15;;;;;;;1.07;0.90;;;18.70;99.90;;;;;;5061106;28;20212;-96
2022/07/11 05:49:47;;;;;;;2.43;0.90;;;18.60;99.90;;;;;;5064137;28;20222;-96
2022/07/11 05:52:22;;;;;;;1.03;0.93;;;18.50;99.90;;;;;;5060140;28;20214;-96
2022/07/11 05:54:56;;;;;;;1.00;0.90;;;18.50;99.90;;;;;;5062163;28;20200;-96
2022/07/11 06:00:27;;;;;;;1.77;1.27;;;18.40;99.90;;;;;;5064413;28;20242;-96
2022/07/11 06:02:58;;;;;;;0.90;0.90;;;18.40;99.90;;;;;;5061971;28;20235;-96
2022/07/11 06:05:31;;;;;;;2.17;1.10;;;18.30;99.90;;;;;;5058027;28;20204;-96
2022/07/11 06:10:56;;;;;;;1.20;1.10;;;18.20;99.90;;;;;;5058149;28;20220;-96
2022/07/11 06:13:29;;;;;;;1.10;1.00;;;18.10;99.90;;;;;;5060952;28;20553;-96
2022/07/11 06:16:01;;;;;;;2.40;0.77;;;18.10;99.90;;;;;;5060750;28;20207;-96
2022/07/11 06:19:00;;;;;;;1.10;1.00;;;18.10;99.90;;;;;;5067540;28;20196;-96
2022/07/11 06:21:33;;;;;;;1.00;1.00;;;18.10;99.90;;;;;;5060177;28;20594;-96
2022/07/11 06:24:09;;;;;;;1.40;1.10;;;18.10;99.90;;;;;;5067605;28;20266;-96
2022/07/11 06:26:46;;;;;;;1.23;1.10;;;18.00;99.90;;;;;;5061532;28;20273;-96
2022/07/11 06:29:19;;;;;;;1.73;1.03;;;18.00;99.90;;;;;;5041273;28;20295;-96
2022/07/11 06:31:59;;;;;;;1.10;1.00;;;17.90;99.90;;;;;;5050318;28;20270;-96
2022/07/11 06:34:39;;;;;;;0.90;0.90;;;18.00;99.90;;;;;;5051125;28;20205;-96
2022/07/11 06:37:24;;;;;;;1.47;1.10;;;18.00;99.90;;;;;;5048958;28;20274;-96
2022/07/11 06:40:00;;;;;;;1.17;1.07;;;17.90;99.90;;;;;;5053058;28;20201;-96
2022/07/11 06:45:38;;;;;;;1.30;1.17;;;17.90;99.90;;;;;;5069850;28;20197;-95
2022/07/11 07:12:13;;;;;;;1.20;1.10;;;17.60;99.90;;;;;;5068322;28;20298;-96
2022/07/11 07:14:46;;;;;;;1.30;1.20;;;17.50;99.90;;;;;;5064295;28;20216;-96
2022/07/11 07:17:24;;;;;;;1.97;1.33;;;17.50;99.90;;;;;;5060750;28;20236;-96
2022/07/11 07:19:58;;;;;;;1.20;1.10;;;17.50;99.90;;;;;;5066432;28;20223;-96
2022/07/11 07:22:38;;;;;;;1.47;1.30;;;17.50;99.90;;;;;;5071758;28;20204;-96
2022/07/11 07:25:13;;;;;;;1.27;1.17;;;17.40;99.90;;;;;;5060325;28;20208;-96
2022/07/11 07:27:45;;;;;;;1.37;1.27;;;17.40;99.90;;;;;;5070642;28;20208;-96
2022/07/11 07:30:17;;;;;;;1.70;1.20;;;17.40;99.90;;;;;;5067886;28;20201;-96
2022/07/11 07:32:51;;;;;;;1.33;1.23;;;17.40;99.90;;;;;;5061481;28;20204;-96
2022/07/11 07:40:37;;;;;;;1.27;1.17;;;17.30;99.90;;;;;;5040922;28;20243;-96
2022/07/11 07:43:08;;;;;;;1.40;1.30;;;17.20;99.90;;;;;;5042630;28;20216;-96
2022/07/11 07:45:41;;;;;;;2.27;1.50;;;17.20;99.90;;;;;;5043158;28;20213;-96
2022/07/11 07:48:15;;;;;;;1.60;1.33;;;17.20;99.90;;;;;;5043445;28;20200;-96
2022/07/11 07:50:47;;;;;;;1.73;1.50;;;17.10;99.90;;;;;;5042542;28;20211;-96
2022/07/11 07:53:20;;;;;;;1.67;1.50;;;17.10;99.90;;;;;;5047726;28;20263;-96
2022/07/11 07:55:53;;;;;;;3.00;1.60;;;17.10;99.90;;;;;;5047996;28;20205;-96
2022/07/11 07:58:28;;;;;;;1.50;1.40;;;17.00;99.90;;;;;;5050751;28;20263;-96
2022/07/11 08:04:00;;;;;;;2.37;1.77;;;17.00;99.90;;;;;;5050318;28;20271;-96
2022/07/11 08:09:53;;;;;;;1.73;1.40;;;16.90;99.90;;;;;;5335427;22;20264;-96
2022/07/11 08:12:25;;;;;;;2.33;1.70;;;16.90;99.90;;;;;;5040151;28;20205;-96
2022/07/11 08:14:57;;;;;;;1.90;1.47;;;16.90;99.90;;;;;;5039752;28;20354;-96
2022/07/11 08:17:32;;;;;;;1.57;1.47;;;16.80;99.90;;;;;;5040248;28;20696;-96
2022/07/11 08:22:53;;;;;;;1.50;1.40;;;16.70;99.90;;;;;;5040143;28;20209;-96
2022/07/11 08:25:24;;;;;;;2.10;1.50;;;16.60;99.90;;;;;;5043080;28;20209;-96
2022/07/11 08:27:56;;;;;;;1.93;1.60;;;16.60;99.90;;;;;;5057075;28;20192;-96
2022/07/11 08:30:28;;;;;;;2.80;1.57;;;16.50;99.90;;;;;;5056370;28;20239;-96
2022/07/11 08:33:00;;;;;;;2.57;1.47;;;16.50;99.90;;;;;;5054115;28;20216;-96
2022/07/11 08:36:14;;;;;;;1.90;1.70;;;16.40;99.90;;;;;;5048365;28;20217;-96
2022/07/11 08:42:03;;;;;;;1.90;1.73;;;16.20;99.90;;;;;;5034305;28;20205;-96
2022/07/11 08:44:43;;;;;;;2.97;1.60;;;16.20;99.90;;;;;;5041853;28;20197;-96
2022/07/11 08:47:19;;;;;;;1.93;1.50;;;16.10;99.90;;;;;;5040959;28;20263;-96
2022/07/11 08:49:51;;;;;;;1.87;1.53;;;16.10;99.90;;;;;;5040602;28;20278;-96
2022/07/11 08:52:23;;;;;;;2.10;1.83;;;16.00;99.90;;;;;;5041866;28;20228;-96
2022/07/11 08:54:57;;;;;;;2.60;1.70;;;15.90;99.90;;;;;;5022007;28;20262;-96
2022/07/11 08:57:29;;;;;;;1.73;1.63;;;15.90;99.90;;;;;;5021263;28;20233;-96
2022/07/11 09:00:02;;;;;;;1.70;1.60;;;15.80;99.90;;;;;;5020537;28;20209;-96
2022/07/11 09:02:35;;;;;;;2.63;1.50;;;15.80;99.90;;;;;;5021880;28;20255;-95
2022/07/11 09:05:09;;;;;;;2.80;1.77;;;15.70;99.90;;;;;;5023708;28;20204;-96
2022/07/11 09:07:46;;;;;;;3.07;1.80;;;15.70;99.90;;;;;;5023562;28;20213;-96
2022/07/11 09:10:20;;;;;;;2.70;1.97;;;15.70;99.90;;;;;;5018945;28;20240;-96
2022/07/11 09:13:03;;;;;;;2.70;1.90;;;15.70;99.90;;;;;;5039776;28;20620;-96
2022/07/11 09:15:41;;;;;;;2.37;1.93;;;15.70;99.90;;;;;;5041388;28;20267;-96
2022/07/11 09:18:37;;;;;;;2.13;1.93;;;15.70;99.90;;;;;;5044703;28;20232;-96
2022/07/11 09:26:54;;;;;;;2.37;2.00;;;15.50;99.90;;;;;;5038895;28;20205;-96
2022/07/11 09:29:28;;;;;;;2.07;1.90;;;15.50;99.90;;;;;;5041550;28;20209;-95
2022/07/11 09:32:00;;;;;;;2.27;2.07;;;15.50;99.90;;;;;;5038596;28;20712;-96
2022/07/11 09:34:31;;;;;;;1.70;1.60;;;15.50;99.90;;;;;;5038489;28;20201;-96
2022/07/11 09:42:18;;;;;;;2.83;1.80;;;15.30;99.90;;;;;;5030389;28;20251;-96
2022/07/11 09:44:51;;;;;;;5.10;2.03;;;15.30;99.90;;;;;;5039538;28;20239;-96
2022/07/11 09:47:24;;;;;;;2.77;1.97;;;15.20;99.90;;;;;;5041699;28;20224;-96
2022/07/11 09:49:57;;;;;;;1.80;1.70;;;15.30;99.90;;;;;;5043721;28;20607;-96
2022/07/11 09:52:34;;;;;;;3.00;2.23;;;15.20;99.90;;;;;;5044124;28;20219;-96
2022/07/11 09:55:18;;;;;;;2.30;2.03;;;15.20;99.90;;;;;;5043499;28;20209;-96
2022/07/11 09:58:13;;;;;;;2.20;2.00;;;15.30;99.90;;;;;;5045461;28;20255;-95
2022/07/11 10:00:47;;;;;;;2.00;1.80;;;15.20;99.90;;;;;;5046660;28;20204;-96
2022/07/11 10:03:22;;;;;;;3.20;2.07;;;15.20;99.90;;;;;;5047967;28;20216;-96
2022/07/11 10:14:22;;;;;;;2.63;2.43;;;15.10;99.90;;;;;;5848928;22;20267;-96
2022/07/11 10:17:02;;;;;;;2.10;2.00;;;15.10;99.90;;;;;;5037467;28;20212;-96
2022/07/11 10:19:46;;;;;;;3.30;2.20;;;15.10;99.90;;;;;;5052228;28;20583;-96
2022/07/11 10:22:31;;;;;;;2.87;2.27;;;15.00;99.90;;;;;;5068682;28;20610;-96
2022/07/11 10:25:12;;;;;;;2.77;2.53;;;15.00;99.90;;;;;;5070930;28;20209;-96
2022/07/11 10:30:59;;;;;;;2.30;2.10;;;15.00;99.90;;;;;;5918377;23;20229;-96
2022/07/11 10:33:33;;;;;;;2.87;1.90;;;15.00;99.90;;;;;;5315150;23;20235;-96
2022/07/11 10:53:29;;;;;;;2.43;2.23;;;15.00;99.90;;;;;;5048403;28;20236;-96
2022/07/11 10:56:09;;;;;;;2.50;2.13;;;15.00;99.90;;;;;;5044320;28;20213;-96
2022/07/11 10:59:10;;;;;;;2.00;1.90;;;15.00;99.90;;;;;;5043626;28;20268;-95
2022/07/11 11:02:20;;;;;;;2.30;2.10;;;15.00;99.90;;;;;;5045958;28;20654;-95
2022/07/11 11:04:57;;;;;;;1.87;1.77;;;15.00;99.90;;;;;;5046689;28;20595;-94
2022/07/11 11:11:51;;;;;;;2.13;1.80;;;15.10;99.90;;;;;;5057723;28;20189;-96
2022/07/11 11:14:40;;;;;;;2.50;2.20;;;15.10;99.90;;;;;;5198167;23;20248;-96
2022/07/11 11:20:07;;;;;;;2.10;1.90;;;15.00;99.90;;;;;;5054287;28;20237;-96
2022/07/11 11:22:42;;;;;;;2.20;2.10;;;15.00;99.90;;;;;;5034428;28;20221;-96
2022/07/11 11:25:15;;;;;;;2.70;2.27;;;15.00;99.90;;;;;;5055284;28;20200;-96
2022/07/11 11:28:06;;;;;;;2.17;1.97;;;15.00;99.90;;;;;;5057024;28;20227;-96
2022/07/11 11:30:54;;;;;;;1.83;1.73;;;14.90;99.90;;;;;;5049994;28;20211;-96
2022/07/11 11:33:29;;;;;;;2.30;2.10;;;14.90;99.90;;;;;;5050146;28;20248;-96
2022/07/11 11:36:04;;;;;;;2.40;2.20;;;14.90;99.90;;;;;;5045354;28;20215;-96
2022/07/11 11:38:42;;;;;;;3.70;2.30;;;14.90;99.90;;;;;;5056558;28;20235;-96
2022/07/11 11:41:25;;;;;;;2.50;2.30;;;14.90;99.90;;;;;;5057474;28;20239;-96
2022/07/11 11:43:58;;;;;;;2.37;2.17;;;14.90;99.90;;;;;;5042325;28;20242;-96
2022/07/11 11:46:33;;;;;;;2.60;2.30;;;14.90;99.90;;;;;;5041671;28;20239;-96
2022/07/11 11:49:06;;;;;;;2.43;2.23;;;14.80;99.90;;;;;;5041836;28;20223;-96
2022/07/11 11:51:39;;;;;;;2.40;2.20;;;14.80;99.90;;;;;;5040207;28;20209;-96
2022/07/11 11:54:10;;;;;;;2.30;2.10;;;14.70;99.90;;;;;;5044722;28;20223;-96
2022/07/11 11:56:42;;;;;;;2.37;2.17;;;14.80;99.90;;;;;;5052907;28;20225;-96
2022/07/11 11:59:15;;;;;;;2.30;2.10;;;14.70;99.90;;;;;;5053846;28;20225;-96
2022/07/11 12:01:51;;;;;;;2.43;2.23;;;14.70;99.90;;;;;;5047280;28;20220;-96
2022/07/11 12:04:23;;;;;;;2.40;2.20;;;14.70;99.90;;;;;;5047936;28;20212;-96
2022/07/11 12:06:54;;;;;;;3.03;2.30;;;14.60;99.90;;;;;;5054289;28;20224;-96
2022/07/11 12:15:02;;;;;;;2.53;2.33;;;14.50;99.90;;;;;;5054578;28;20235;-96
2022/07/11 12:17:38;;;;;;;3.23;2.40;;;14.50;99.90;;;;;;5053213;28;20636;-96
2022/07/11 12:20:10;;;;;;;2.93;2.37;;;14.50;99.90;;;;;;5052742;28;20213;-96
2022/07/11 12:22:44;;;;;;;2.80;2.13;;;14.50;99.90;;;;;;5054162;28;20231;-96
2022/07/11 12:25:16;;;;;;;4.57;2.60;;;14.50;99.90;;;;;;5056656;28;20223;-96
2022/07/11 12:27:49;;;;;;;2.90;2.70;;;14.50;99.90;;;;;;5056222;28;20212;-96
2022/07/11 12:30:25;;;;;;;2.90;2.40;;;14.40;99.90;;;;;;5055215;28;20224;-95
2022/07/11 12:33:27;;;;;;;2.50;2.30;;;14.40;99.90;;;;;;5057772;28;20189;-96
2022/07/11 12:36:02;;;;;;;2.50;2.30;;;14.40;99.90;;;;;;5068131;28;20295;-96
2022/07/11 12:38:52;;;;;;;2.77;2.10;;;14.40;99.90;;;;;;5067855;28;20208;-96
2022/07/11 12:41:24;;;;;;;3.40;2.33;;;14.40;99.90;;;;;;5059434;28;20219;-96
2022/07/11 12:46:47;;;;;;;2.40;2.30;;;14.40;99.90;;;;;;5048864;28;20216;-96
2022/07/11 12:49:29;;;;;;;2.50;2.30;;;14.40;99.90;;;;;;5053299;28;20195;-96
2022/07/11 12:52:02;;;;;;;2.90;2.30;;;14.40;99.90;;;;;;5056430;28;20219;-96
2022/07/11 12:54:34;;;;;;;3.10;2.80;;;14.40;99.90;;;;;;5056990;28;20201;-96
2022/07/11 12:57:10;;;;;;;3.70;2.70;;;14.50;99.90;;;;;;5056988;28;20250;-96
2022/07/11 12:59:42;;;;;;;4.43;2.30;;;14.50;99.90;;;;;;5056155;28;20240;-96
2022/07/11 13:02:17;;;;;;;3.27;2.70;;;14.50;99.90;;;;;;5056202;28;20197;-96
2022/07/11 13:04:56;;;;;;;3.00;2.70;;;14.60;99.90;;;;;;5056741;28;20195;-96
2022/07/11 13:10:21;;;;;;;2.67;2.30;;;14.70;99.90;;;;;;5047616;28;20300;-96
2022/07/11 13:12:54;;;;;;;3.93;2.77;;;14.70;99.90;;;;;;5044857;28;20208;-96
2022/07/11 13:15:27;;;;;;;2.50;2.30;;;14.60;99.90;;;;;;5042098;28;20227;-96
2022/07/11 13:17:59;;;;;;;2.80;2.60;;;14.70;99.90;;;;;;5040900;28;20224;-96
2022/07/11 13:20:35;;;;;;;2.57;2.37;;;14.70;99.90;;;;;;5038856;28;20693;-96
2022/07/11 13:23:07;;;;;;;3.23;2.60;;;14.70;99.90;;;;;;5042800;28;20231;-96
2022/07/11 13:25:44;;;;;;;2.70;2.50;;;14.70;99.90;;;;;;5050963;28;20619;-96
2022/07/11 13:28:16;;;;;;;2.93;2.70;;;14.70;99.90;;;;;;5041990;28;20216;-96
2022/07/11 13:30:49;;;;;;;3.20;2.63;;;14.80;99.90;;;;;;5040292;28;20239;-96
2022/07/11 13:33:41;;;;;;;3.57;2.60;;;14.80;99.90;;;;;;5042356;28;20731;-96
2022/07/11 13:36:19;;;;;;;2.50;2.30;;;14.80;99.90;;;;;;5041742;28;20208;-94
2022/07/11 13:38:51;;;;;;;2.50;2.30;;;14.80;99.90;;;;;;5043111;28;20205;-96
2022/07/11 13:41:23;;;;;;;2.50;2.30;;;14.90;99.90;;;;;;5043035;28;20244;-95
2022/07/11 13:43:55;;;;;;;2.93;2.63;;;14.90;99.90;;;;;;5054344;28;20193;-96
2022/07/11 13:46:28;;;;;;;2.53;2.33;;;14.90;99.90;;;;;;5055505;28;20189;-96
2022/07/11 13:49:01;;;;;;;3.10;2.63;;;15.00;99.90;;;;;;5054341;28;20205;-95
2022/07/11 13:51:36;;;;;;;2.97;2.40;;;15.00;99.90;;;;;;5048942;28;20205;-95
2022/07/11 13:54:10;;;;;;;3.93;2.50;;;15.00;99.90;;;;;;5046288;28;20668;-95
2022/07/11 13:56:45;;;;;;;2.60;2.40;;;15.00;99.90;;;;;;5043496;28;20208;-96
2022/07/11 13:59:20;;;;;;;2.90;2.67;;;15.10;99.90;;;;;;5040252;28;20213;-96
2022/07/11 14:01:53;;;;;;;3.17;2.40;;;15.10;99.90;;;;;;5041338;28;20262;-96
2022/07/11 14:04:26;;;;;;;3.97;2.50;;;15.20;99.90;;;;;;5041263;28;20323;-95
2022/07/11 14:07:02;;;;;;;2.57;2.37;;;15.20;99.90;;;;;;5040132;28;20205;-96
2022/07/11 14:09:34;;;;;;;2.83;2.20;;;15.30;99.90;;;;;;5046974;28;20636;-96
2022/07/11 14:12:07;;;;;;;2.57;2.30;;;15.30;99.90;;;;;;5038112;28;20201;-96
2022/07/11 14:14:38;;;;;;;3.73;2.67;;;15.30;99.90;;;;;;5039056;28;20271;-95
2022/07/11 14:17:10;;;;;;;2.87;2.57;;;15.40;99.90;;;;;;5038800;28;20212;-96
2022/07/11 14:19:44;;;;;;;2.93;2.47;;;15.40;99.90;;;;;;5038286;28;20251;-96
2022/07/11 14:22:20;;;;;;;3.80;2.90;;;15.40;99.90;;;;;;5037716;28;20209;-96
2022/07/11 14:24:53;;;;;;;3.90;2.60;;;15.50;99.90;;;;;;5037748;28;20201;-96
2022/07/11 14:27:26;;;;;;;3.53;2.60;;;15.50;99.90;;;;;;5052782;28;20212;-96
2022/07/11 14:29:58;;;;;;;3.10;2.60;;;15.50;99.90;;;;;;5057499;28;20200;-96
2022/07/11 14:32:29;;;;;;;2.83;2.57;;;15.50;99.90;;;;;;5059005;28;20287;-96
2022/07/11 14:37:49;;;;;;;2.93;2.50;;;15.60;99.90;;;;;;5060880;28;20269;-96
2022/07/11 14:40:23;;;;;;;3.73;2.63;;;15.60;99.90;;;;;;5060249;28;20239;-96
2022/07/11 14:42:58;;;;;;;3.70;2.67;;;15.70;99.90;;;;;;5021212;28;20259;-96
2022/07/11 14:45:31;;;;;;;4.67;2.60;;;15.80;99.90;;;;;;5021705;28;20570;-96
2022/07/11 14:48:04;;;;;;;3.47;2.40;;;16.10;99.90;;;;;;5021055;28;20708;-96
2022/07/11 14:53:40;;;;;;;2.47;2.00;;;17.60;99.90;;;;;;5031155;28;20209;-96
2022/07/11 14:56:15;;;;;;;2.20;2.00;;;18.30;99.90;;;;;;5031328;28;20213;-96
2022/07/11 14:59:04;;;;;;;3.33;2.37;;;18.90;99.90;;;;;;5022107;28;20230;-96
2022/07/11 15:01:41;;;;;;;3.27;2.00;;;19.30;99.90;;;;;;5032667;28;20233;-96
2022/07/11 15:19:18;;;;;;;2.00;1.80;;;21.10;99.90;;;;;;5054220;28;20236;-96
2022/07/11 15:21:55;;;;;;;3.30;1.90;;;21.30;99.90;;;;;;5053616;28;20237;-96
2022/07/11 15:24:48;;;;;;;2.10;1.90;;;21.50;99.90;;;;;;5054637;28;20205;-96
2022/07/11 15:27:35;;;;;;;3.10;2.03;;;21.40;99.90;;;;;;5055420;28;20192;-96
2022/07/11 15:30:16;;;;;;;3.60;2.00;;;21.40;99.90;;;;;;5054885;28;20215;-96
2022/07/11 15:32:51;;;;;;;3.07;2.40;;;21.60;99.90;;;;;;5058612;28;20189;-96
2022/07/11 15:41:37;;;;;;;2.40;2.20;;;21.00;99.90;;;;;;5052413;28;20259;-96
2022/07/11 15:47:33;;;;;;;3.10;2.33;;;20.40;99.90;;;;;;5053570;28;20201;-96
2022/07/11 15:53:22;;;;;;;7.47;2.40;;;20.00;99.90;;;;;;5056148;28;20205;-96
2022/07/11 15:56:08;;;;;;;4.17;2.50;;;19.80;99.90;;;;;;5054288;28;20212;-96
2022/07/11 15:58:43;;;;;;;2.50;2.30;;;19.70;99.90;;;;;;5058124;28;20204;-96
2022/07/11 16:01:18;;;;;;;4.53;2.60;;;19.60;99.90;;;;;;5057772;28;20236;-96
2022/07/11 16:04:16;;;;;;;4.10;2.23;;;19.60;99.90;;;;;;5058266;28;20204;-96
2022/07/11 16:06:59;;;;;;;2.80;2.57;;;19.60;99.90;;;;;;5055746;28;20204;-96
2022/07/11 16:09:32;;;;;;;3.37;3.07;;;19.60;99.90;;;;;;5045772;28;20247;-96
2022/07/11 16:12:05;;;;;;;3.10;2.80;;;19.60;99.90;;;;;;5042872;28;20215;-96
2022/07/11 16:14:43;;;;;;;4.20;2.90;;;19.70;99.90;;;;;;5047141;28;20243;-96
2022/07/11 16:17:23;;;;;;;2.93;2.60;;;19.80;99.90;;;;;;5056936;28;20217;-96
2022/07/11 16:20:08;;;;;;;6.13;2.57;;;19.90;99.90;;;;;;5048367;28;20249;-96
2022/07/11 16:22:53;;;;;;;2.60;2.40;;;20.00;99.90;;;;;;5039756;28;20212;-96
2022/07/11 16:25:29;;;;;;;3.53;2.40;;;20.10;99.90;;;;;;5040220;28;20259;-96
2022/07/11 16:28:01;;;;;;;4.90;2.87;;;20.10;99.90;;;;;;5041754;28;20204;-96
2022/07/11 16:30:36;;;;;;;2.93;2.63;;;20.20;99.90;;;;;;5040883;28;20209;-96
2022/07/11 16:33:13;;;;;;;2.70;2.50;;;20.20;99.90;;;;;;5043663;28;20212;-96
2022/07/11 16:35:47;;;;;;;2.10;2.00;;;20.10;99.90;;;;;;5047875;28;20243;-96
2022/07/11 16:43:56;;;;;;;7.00;3.00;;;20.30;99.90;;;;;;5045967;28;20209;-96
2022/07/11 16:46:37;;;;;;;6.53;2.53;;;20.40;99.90;;;;;;5043436;28;20235;-96
2022/07/11 16:49:11;;;;;;;4.00;2.40;;;20.60;99.90;;;;;;5045204;28;20235;-96
2022/07/11 16:51:50;;;;;;;3.87;2.60;;;20.70;99.90;;;;;;5045634;28;20209;-96
2022/07/11 17:00:27;;;;;;;8.17;3.37;;;20.90;99.90;;;;;;5047363;28;20272;-96
2022/07/11 17:08:56;;;;;;;2.80;2.50;;;21.20;99.90;;;;;;5045488;28;20291;-96
2022/07/11 17:11:30;;;;;;;2.63;2.40;;;21.30;99.90;;;;;;5049197;28;20205;-96
2022/07/11 17:20:13;;;;;;;3.30;2.60;;;21.30;99.90;;;;;;5221975;23;20255;-96
2022/07/11 17:22:55;;;;;;;3.57;2.33;;;21.40;99.90;;;;;;5040199;28;20269;-96
2022/07/11 17:25:29;;;;;;;5.53;2.40;;;21.60;99.90;;;;;;5040622;28;20212;-96
2022/07/11 17:28:05;;;;;;;4.23;2.47;;;21.80;99.90;;;;;;5040908;28;20209;-96
2022/07/11 17:30:38;;;;;;;2.23;2.10;;;21.90;99.90;;;;;;5040218;28;20204;-96
2022/07/11 17:33:11;;;;;;;2.63;2.30;;;22.10;99.90;;;;;;5024464;28;20280;-96
2022/07/11 17:35:57;;;;;;;3.90;2.40;;;22.10;99.90;;;;;;5044837;28;20205;-96
2022/07/11 17:38:31;;;;;;;4.20;2.33;;;22.20;99.90;;;;;;5044846;28;20219;-96
2022/07/11 17:44:06;;;;;;;3.17;2.27;;;22.40;99.90;;;;;;5041941;28;20251;-96
2022/07/11 17:46:48;;;;;;;2.80;2.30;;;22.60;99.90;;;;;;5045025;28;20208;-96
2022/07/11 17:52:34;;;;;;;2.33;2.13;;;22.80;99.90;;;;;;5045472;28;20227;-96
2022/07/11 17:58:19;;;;;;;3.33;2.13;;;23.00;99.90;;;;;;5047883;28;20208;-96
2022/07/11 18:01:05;;;;;;;2.47;2.00;;;23.00;99.90;;;;;;5041590;28;20208;-96
2022/07/11 18:25:35;;;;;;;2.13;1.93;;;24.10;99.90;;;;;;5053282;28;20205;-96
2022/07/11 18:35:30;;;;;;;2.47;1.90;;;24.00;99.90;;;;;;5013172;28;20221;-96
2022/07/11 18:59:46;;;;;;;2.10;1.90;;;24.80;99.90;;;;;;5990323;22;20246;-96
2022/07/11 19:02:21;;;;;;;5.37;2.17;;;24.90;99.90;;;;;;5078357;28;20239;-96
2022/07/11 19:04:58;;;;;;;4.27;1.90;;;25.10;99.90;;;;;;5078905;28;20199;-96
2022/07/11 19:16:17;;;;;;;2.73;1.93;;;25.50;99.90;;;;;;5081453;22;20251;-96
2022/07/11 19:18:50;;;;;;;3.83;2.30;;;25.60;99.90;;;;;;5048395;28;20244;-96